sensor_id;sensor_type;location;lat;lon;timestamp;temperature;humidity
25450;DHT22;13371;52.080;5.624;2023-04-15T00:01:58;11.90;80.30
25450;DHT22;13371;52.080;5.624;2023-04-15T00:04:24;12.10;80.50
25450;DHT22;13371;52.080;5.624;2023-04-15T00:06:51;12.00;80.30
25450;DHT22;13371;52.080;5.624;2023-04-15T00:09:20;11.90;81.20
25450;DHT22;13371;52.080;5.624;2023-04-15T00:11:45;11.90;80.70
25450;DHT22;13371;52.080;5.624;2023-04-15T00:14:12;11.90;80.70
25450;DHT22;13371;52.080;5.624;2023-04-15T00:16:38;11.80;81.10
25450;DHT22;13371;52.080;5.624;2023-04-15T00:19:03;11.60;82.50
25450;DHT22;13371;52.080;5.624;2023-04-15T00:21:29;11.40;82.80
25450;DHT22;13371;52.080;5.624;2023-04-15T00:23:55;11.30;83.40
25450;DHT22;13371;52.080;5.624;2023-04-15T00:26:21;11.40;83.20
25450;DHT22;13371;52.080;5.624;2023-04-15T00:28:46;11.50;83.00
25450;DHT22;13371;52.080;5.624;2023-04-15T00:31:12;11.40;83.10
25450;DHT22;13371;52.080;5.624;2023-04-15T00:33:37;11.40;83.60
25450;DHT22;13371;52.080;5.624;2023-04-15T00:36:05;11.20;83.90
25450;DHT22;13371;52.080;5.624;2023-04-15T00:38:30;11.20;83.90
25450;DHT22;13371;52.080;5.624;2023-04-15T00:40:56;10.90;84.90
25450;DHT22;13371;52.080;5.624;2023-04-15T00:43:21;10.80;85.70
25450;DHT22;13371;52.080;5.624;2023-04-15T00:45:47;10.80;85.80
25450;DHT22;13371;52.080;5.624;2023-04-15T00:48:13;11.00;85.20
25450;DHT22;13371;52.080;5.624;2023-04-15T00:50:39;10.80;85.10
25450;DHT22;13371;52.080;5.624;2023-04-15T00:53:05;10.70;86.00
25450;DHT22;13371;52.080;5.624;2023-04-15T00:55:31;10.60;85.90
25450;DHT22;13371;52.080;5.624;2023-04-15T00:57:57;10.50;86.80
25450;DHT22;13371;52.080;5.624;2023-04-15T01:00:22;10.70;86.20
25450;DHT22;13371;52.080;5.624;2023-04-15T01:02:48;10.90;85.50
25450;DHT22;13371;52.080;5.624;2023-04-15T01:05:15;10.80;85.90
25450;DHT22;13371;52.080;5.624;2023-04-15T01:07:42;10.70;86.10
25450;DHT22;13371;52.080;5.624;2023-04-15T01:10:08;10.70;86.30
25450;DHT22;13371;52.080;5.624;2023-04-15T01:12:34;10.70;87.00
25450;DHT22;13371;52.080;5.624;2023-04-15T01:15:01;10.80;86.30
25450;DHT22;13371;52.080;5.624;2023-04-15T01:17:27;10.80;86.50
25450;DHT22;13371;52.080;5.624;2023-04-15T01:19:55;10.70;86.50
25450;DHT22;13371;52.080;5.624;2023-04-15T01:22:22;10.50;86.80
25450;DHT22;13371;52.080;5.624;2023-04-15T01:25:04;10.50;87.80
25450;DHT22;13371;52.080;5.624;2023-04-15T01:27:31;10.50;88.00
25450;DHT22;13371;52.080;5.624;2023-04-15T01:29:56;10.30;88.80
25450;DHT22;13371;52.080;5.624;2023-04-15T01:32:22;10.20;88.60
25450;DHT22;13371;52.080;5.624;2023-04-15T01:34:48;10.30;88.60
25450;DHT22;13371;52.080;5.624;2023-04-15T01:37:14;10.50;89.00
25450;DHT22;13371;52.080;5.624;2023-04-15T01:39:39;10.50;88.20
25450;DHT22;13371;52.080;5.624;2023-04-15T01:42:05;10.30;89.00
25450;DHT22;13371;52.080;5.624;2023-04-15T01:44:31;10.20;89.00
25450;DHT22;13371;52.080;5.624;2023-04-15T01:46:56;10.30;89.40
25450;DHT22;13371;52.080;5.624;2023-04-15T01:49:22;10.30;89.20
25450;DHT22;13371;52.080;5.624;2023-04-15T01:51:48;10.30;89.10
25450;DHT22;13371;52.080;5.624;2023-04-15T01:54:13;10.30;89.10
25450;DHT22;13371;52.080;5.624;2023-04-15T01:56:39;10.30;88.90
25450;DHT22;13371;52.080;5.624;2023-04-15T01:59:05;10.30;89.50
25450;DHT22;13371;52.080;5.624;2023-04-15T02:01:30;10.40;89.30
25450;DHT22;13371;52.080;5.624;2023-04-15T02:03:56;10.10;90.20
25450;DHT22;13371;52.080;5.624;2023-04-15T02:06:22;10.00;90.30
25450;DHT22;13371;52.080;5.624;2023-04-15T02:08:47;10.00;90.60
25450;DHT22;13371;52.080;5.624;2023-04-15T02:11:13;9.80;91.00
25450;DHT22;13371;52.080;5.624;2023-04-15T02:13:39;9.80;90.90
25450;DHT22;13371;52.080;5.624;2023-04-15T02:16:15;9.80;91.20
25450;DHT22;13371;52.080;5.624;2023-04-15T02:18:41;9.60;91.50
25450;DHT22;13371;52.080;5.624;2023-04-15T02:21:07;9.70;91.40
25450;DHT22;13371;52.080;5.624;2023-04-15T02:23:33;9.70;91.40
25450;DHT22;13371;52.080;5.624;2023-04-15T02:25:58;9.90;91.50
25450;DHT22;13371;52.080;5.624;2023-04-15T02:28:24;9.80;91.50
25450;DHT22;13371;52.080;5.624;2023-04-15T02:30:50;9.60;91.80
25450;DHT22;13371;52.080;5.624;2023-04-15T02:33:16;9.40;92.30
25450;DHT22;13371;52.080;5.624;2023-04-15T02:35:42;9.30;92.50
25450;DHT22;13371;52.080;5.624;2023-04-15T02:38:10;9.50;92.60
25450;DHT22;13371;52.080;5.624;2023-04-15T02:40:36;9.40;92.80
25450;DHT22;13371;52.080;5.624;2023-04-15T02:43:01;9.50;92.70
25450;DHT22;13371;52.080;5.624;2023-04-15T02:45:27;9.50;92.80
25450;DHT22;13371;52.080;5.624;2023-04-15T02:47:53;9.50;92.80
25450;DHT22;13371;52.080;5.624;2023-04-15T02:50:19;9.60;92.70
25450;DHT22;13371;52.080;5.624;2023-04-15T02:52:45;9.50;93.30
25450;DHT22;13371;52.080;5.624;2023-04-15T02:55:11;9.50;93.20
25450;DHT22;13371;52.080;5.624;2023-04-15T02:57:37;9.70;92.90
25450;DHT22;13371;52.080;5.624;2023-04-15T03:00:04;9.60;93.00
25450;DHT22;13371;52.080;5.624;2023-04-15T03:02:34;9.70;93.00
25450;DHT22;13371;52.080;5.624;2023-04-15T03:05:00;9.50;93.20
25450;DHT22;13371;52.080;5.624;2023-04-15T03:07:26;9.40;93.50
25450;DHT22;13371;52.080;5.624;2023-04-15T03:09:51;9.50;93.80
25450;DHT22;13371;52.080;5.624;2023-04-15T03:12:17;9.50;93.70
25450;DHT22;13371;52.080;5.624;2023-04-15T03:14:42;9.80;93.50
25450;DHT22;13371;52.080;5.624;2023-04-15T03:17:08;9.70;93.40
25450;DHT22;13371;52.080;5.624;2023-04-15T03:19:33;9.20;94.50
25450;DHT22;13371;52.080;5.624;2023-04-15T03:21:59;9.30;94.60
25450;DHT22;13371;52.080;5.624;2023-04-15T03:24:25;9.40;94.40
25450;DHT22;13371;52.080;5.624;2023-04-15T03:26:51;9.40;94.40
25450;DHT22;13371;52.080;5.624;2023-04-15T03:29:17;9.40;94.70
25450;DHT22;13371;52.080;5.624;2023-04-15T03:31:42;9.20;94.90
25450;DHT22;13371;52.080;5.624;2023-04-15T03:34:08;9.30;95.20
25450;DHT22;13371;52.080;5.624;2023-04-15T03:36:33;9.40;95.10
25450;DHT22;13371;52.080;5.624;2023-04-15T03:38:59;9.50;94.60
25450;DHT22;13371;52.080;5.624;2023-04-15T03:41:26;9.50;95.10
25450;DHT22;13371;52.080;5.624;2023-04-15T03:43:52;9.50;95.00
25450;DHT22;13371;52.080;5.624;2023-04-15T03:46:18;9.50;94.60
25450;DHT22;13371;52.080;5.624;2023-04-15T03:48:44;9.50;95.00
25450;DHT22;13371;52.080;5.624;2023-04-15T03:51:10;9.50;94.80
25450;DHT22;13371;52.080;5.624;2023-04-15T03:53:36;9.30;95.30
25450;DHT22;13371;52.080;5.624;2023-04-15T03:56:01;9.40;95.50
25450;DHT22;13371;52.080;5.624;2023-04-15T03:58:27;9.10;96.00
25450;DHT22;13371;52.080;5.624;2023-04-15T04:00:52;8.80;96.70
25450;DHT22;13371;52.080;5.624;2023-04-15T04:03:19;8.70;97.40
25450;DHT22;13371;52.080;5.624;2023-04-15T04:05:45;8.80;97.20
25450;DHT22;13371;52.080;5.624;2023-04-15T04:08:10;9.00;97.10
25450;DHT22;13371;52.080;5.624;2023-04-15T04:10:38;9.00;97.10
25450;DHT22;13371;52.080;5.624;2023-04-15T04:13:04;9.20;96.80
25450;DHT22;13371;52.080;5.624;2023-04-15T04:15:29;9.20;96.60
25450;DHT22;13371;52.080;5.624;2023-04-15T04:17:55;9.40;96.10
25450;DHT22;13371;52.080;5.624;2023-04-15T04:20:21;9.20;96.40
25450;DHT22;13371;52.080;5.624;2023-04-15T04:22:47;9.10;96.40
25450;DHT22;13371;52.080;5.624;2023-04-15T04:25:12;8.90;97.20
25450;DHT22;13371;52.080;5.624;2023-04-15T04:27:38;9.00;97.30
25450;DHT22;13371;52.080;5.624;2023-04-15T04:30:05;9.10;96.80
25450;DHT22;13371;52.080;5.624;2023-04-15T04:32:31;9.20;96.90
25450;DHT22;13371;52.080;5.624;2023-04-15T04:34:56;9.10;97.00
25450;DHT22;13371;52.080;5.624;2023-04-15T04:37:22;9.00;97.40
25450;DHT22;13371;52.080;5.624;2023-04-15T04:39:48;8.70;97.80
25450;DHT22;13371;52.080;5.624;2023-04-15T04:42:14;8.80;97.80
25450;DHT22;13371;52.080;5.624;2023-04-15T04:44:40;8.70;98.20
25450;DHT22;13371;52.080;5.624;2023-04-15T04:47:06;8.80;98.20
25450;DHT22;13371;52.080;5.624;2023-04-15T04:49:32;8.70;98.10
25450;DHT22;13371;52.080;5.624;2023-04-15T04:51:58;8.80;98.30
25450;DHT22;13371;52.080;5.624;2023-04-15T04:54:31;8.80;98.20
25450;DHT22;13371;52.080;5.624;2023-04-15T04:56:57;8.60;98.40
25450;DHT22;13371;52.080;5.624;2023-04-15T04:59:23;8.70;98.80
25450;DHT22;13371;52.080;5.624;2023-04-15T05:01:49;8.70;98.60
25450;DHT22;13371;52.080;5.624;2023-04-15T05:04:14;8.60;98.70
25450;DHT22;13371;52.080;5.624;2023-04-15T05:06:40;8.60;99.00
25450;DHT22;13371;52.080;5.624;2023-04-15T05:09:06;8.30;99.90
25450;DHT22;13371;52.080;5.624;2023-04-15T05:11:32;8.20;99.90
25450;DHT22;13371;52.080;5.624;2023-04-15T05:13:57;8.50;99.90
25450;DHT22;13371;52.080;5.624;2023-04-15T05:16:25;8.50;99.60
25450;DHT22;13371;52.080;5.624;2023-04-15T05:18:51;8.60;99.40
25450;DHT22;13371;52.080;5.624;2023-04-15T05:21:17;8.40;99.90
25450;DHT22;13371;52.080;5.624;2023-04-15T05:23:43;8.40;99.90
25450;DHT22;13371;52.080;5.624;2023-04-15T05:26:11;8.40;99.90
25450;DHT22;13371;52.080;5.624;2023-04-15T05:28:37;8.50;99.90
25450;DHT22;13371;52.080;5.624;2023-04-15T05:31:02;8.60;99.80
25450;DHT22;13371;52.080;5.624;2023-04-15T05:33:30;8.60;99.80
25450;DHT22;13371;52.080;5.624;2023-04-15T05:35:56;8.60;99.90
25450;DHT22;13371;52.080;5.624;2023-04-15T05:38:21;8.40;99.90
25450;DHT22;13371;52.080;5.624;2023-04-15T05:40:47;8.50;99.90
25450;DHT22;13371;52.080;5.624;2023-04-15T05:43:13;8.40;99.90
25450;DHT22;13371;52.080;5.624;2023-04-15T05:45:38;8.60;99.90
25450;DHT22;13371;52.080;5.624;2023-04-15T05:48:04;8.60;99.90
25450;DHT22;13371;52.080;5.624;2023-04-15T05:50:30;8.50;99.90
25450;DHT22;13371;52.080;5.624;2023-04-15T05:52:55;8.60;99.90
25450;DHT22;13371;52.080;5.624;2023-04-15T05:55:21;8.80;99.90
25450;DHT22;13371;52.080;5.624;2023-04-15T05:57:47;8.90;99.90
25450;DHT22;13371;52.080;5.624;2023-04-15T06:00:13;9.10;99.90
25450;DHT22;13371;52.080;5.624;2023-04-15T06:02:38;9.20;99.90
25450;DHT22;13371;52.080;5.624;2023-04-15T06:05:04;9.20;99.90
25450;DHT22;13371;52.080;5.624;2023-04-15T06:07:34;9.40;99.90
25450;DHT22;13371;52.080;5.624;2023-04-15T06:10:02;9.40;99.90
25450;DHT22;13371;52.080;5.624;2023-04-15T06:12:27;9.30;99.90
25450;DHT22;13371;52.080;5.624;2023-04-15T06:14:53;9.30;99.90
25450;DHT22;13371;52.080;5.624;2023-04-15T06:17:18;9.30;99.90
25450;DHT22;13371;52.080;5.624;2023-04-15T06:19:44;9.60;99.90
25450;DHT22;13371;52.080;5.624;2023-04-15T06:22:09;9.60;99.90
25450;DHT22;13371;52.080;5.624;2023-04-15T06:24:35;9.50;99.90
25450;DHT22;13371;52.080;5.624;2023-04-15T06:27:01;9.60;99.90
25450;DHT22;13371;52.080;5.624;2023-04-15T06:29:27;9.50;99.90
25450;DHT22;13371;52.080;5.624;2023-04-15T06:31:53;9.60;99.90
25450;DHT22;13371;52.080;5.624;2023-04-15T06:34:18;9.70;99.90
25450;DHT22;13371;52.080;5.624;2023-04-15T06:36:44;9.70;99.90
25450;DHT22;13371;52.080;5.624;2023-04-15T06:39:10;9.70;99.90
25450;DHT22;13371;52.080;5.624;2023-04-15T06:41:35;9.80;99.90
25450;DHT22;13371;52.080;5.624;2023-04-15T06:44:01;9.90;99.90
25450;DHT22;13371;52.080;5.624;2023-04-15T06:46:27;9.90;99.90
25450;DHT22;13371;52.080;5.624;2023-04-15T06:48:52;10.10;99.90
25450;DHT22;13371;52.080;5.624;2023-04-15T06:51:18;9.90;99.90
25450;DHT22;13371;52.080;5.624;2023-04-15T06:53:44;10.00;99.90
25450;DHT22;13371;52.080;5.624;2023-04-15T06:56:09;10.10;99.90
25450;DHT22;13371;52.080;5.624;2023-04-15T06:58:35;10.30;99.90
25450;DHT22;13371;52.080;5.624;2023-04-15T07:01:01;10.20;99.80
25450;DHT22;13371;52.080;5.624;2023-04-15T07:03:27;10.30;99.90
25450;DHT22;13371;52.080;5.624;2023-04-15T07:05:53;10.50;99.90
25450;DHT22;13371;52.080;5.624;2023-04-15T07:08:19;10.60;99.30
25450;DHT22;13371;52.080;5.624;2023-04-15T07:10:45;10.80;99.30
25450;DHT22;13371;52.080;5.624;2023-04-15T07:13:11;10.90;98.90
25450;DHT22;13371;52.080;5.624;2023-04-15T07:15:37;10.90;98.40
25450;DHT22;13371;52.080;5.624;2023-04-15T07:18:03;11.10;98.20
25450;DHT22;13371;52.080;5.624;2023-04-15T07:20:28;11.00;98.00
25450;DHT22;13371;52.080;5.624;2023-04-15T07:22:54;11.20;97.90
25450;DHT22;13371;52.080;5.624;2023-04-15T07:25:20;11.30;97.50
25450;DHT22;13371;52.080;5.624;2023-04-15T07:27:45;11.20;97.30
25450;DHT22;13371;52.080;5.624;2023-04-15T07:30:11;11.20;97.00
25450;DHT22;13371;52.080;5.624;2023-04-15T07:32:37;11.20;97.00
25450;DHT22;13371;52.080;5.624;2023-04-15T07:35:03;11.10;97.00
25450;DHT22;13371;52.080;5.624;2023-04-15T07:37:29;11.20;97.00
25450;DHT22;13371;52.080;5.624;2023-04-15T07:39:55;11.10;96.30
25450;DHT22;13371;52.080;5.624;2023-04-15T07:42:20;10.70;96.50
25450;DHT22;13371;52.080;5.624;2023-04-15T07:44:46;10.40;97.30
25450;DHT22;13371;52.080;5.624;2023-04-15T07:47:12;10.60;97.30
25450;DHT22;13371;52.080;5.624;2023-04-15T07:49:37;10.70;97.40
25450;DHT22;13371;52.080;5.624;2023-04-15T07:52:03;11.00;96.90
25450;DHT22;13371;52.080;5.624;2023-04-15T07:54:28;11.40;96.00
25450;DHT22;13371;52.080;5.624;2023-04-15T07:56:54;11.70;95.80
25450;DHT22;13371;52.080;5.624;2023-04-15T07:59:20;11.60;95.80
25450;DHT22;13371;52.080;5.624;2023-04-15T08:01:46;11.60;95.20
25450;DHT22;13371;52.080;5.624;2023-04-15T08:04:12;11.80;95.10
25450;DHT22;13371;52.080;5.624;2023-04-15T08:06:39;11.30;95.40
25450;DHT22;13371;52.080;5.624;2023-04-15T08:09:05;11.50;95.70
25450;DHT22;13371;52.080;5.624;2023-04-15T08:11:32;11.60;95.60
25450;DHT22;13371;52.080;5.624;2023-04-15T08:13:58;11.50;95.90
25450;DHT22;13371;52.080;5.624;2023-04-15T08:16:25;11.50;96.20
25450;DHT22;13371;52.080;5.624;2023-04-15T08:18:54;11.70;95.80
25450;DHT22;13371;52.080;5.624;2023-04-15T08:21:20;12.20;95.20
25450;DHT22;13371;52.080;5.624;2023-04-15T08:23:47;12.10;94.90
25450;DHT22;13371;52.080;5.624;2023-04-15T08:26:14;11.60;95.40
25450;DHT22;13371;52.080;5.624;2023-04-15T08:28:41;11.60;95.50
25450;DHT22;13371;52.080;5.624;2023-04-15T08:31:07;11.60;95.70
25450;DHT22;13371;52.080;5.624;2023-04-15T08:33:33;12.10;95.10
25450;DHT22;13371;52.080;5.624;2023-04-15T08:35:59;12.10;94.80
25450;DHT22;13371;52.080;5.624;2023-04-15T08:38:24;12.30;95.10
25450;DHT22;13371;52.080;5.624;2023-04-15T08:40:50;12.40;94.30
25450;DHT22;13371;52.080;5.624;2023-04-15T08:43:26;12.10;94.70
25450;DHT22;13371;52.080;5.624;2023-04-15T08:45:54;12.40;94.60
25450;DHT22;13371;52.080;5.624;2023-04-15T08:48:20;12.70;93.50
25450;DHT22;13371;52.080;5.624;2023-04-15T08:50:47;12.80;93.10
25450;DHT22;13371;52.080;5.624;2023-04-15T08:53:13;12.40;93.50
25450;DHT22;13371;52.080;5.624;2023-04-15T08:55:43;12.40;94.40
25450;DHT22;13371;52.080;5.624;2023-04-15T08:58:12;12.30;94.00
25450;DHT22;13371;52.080;5.624;2023-04-15T09:00:39;12.40;94.40
25450;DHT22;13371;52.080;5.624;2023-04-15T09:03:05;12.80;94.60
25450;DHT22;13371;52.080;5.624;2023-04-15T09:05:32;12.70;93.30
25450;DHT22;13371;52.080;5.624;2023-04-15T09:07:59;12.80;94.10
25450;DHT22;13371;52.080;5.624;2023-04-15T09:10:24;12.80;93.60
25450;DHT22;13371;52.080;5.624;2023-04-15T09:12:50;13.00;93.40
25450;DHT22;13371;52.080;5.624;2023-04-15T09:15:16;12.80;93.90
25450;DHT22;13371;52.080;5.624;2023-04-15T09:17:45;12.60;93.70
25450;DHT22;13371;52.080;5.624;2023-04-15T09:20:15;12.30;93.80
25450;DHT22;13371;52.080;5.624;2023-04-15T09:22:44;12.50;93.60
25450;DHT22;13371;52.080;5.624;2023-04-15T09:30:14;12.60;93.50
25450;DHT22;13371;52.080;5.624;2023-04-15T09:32:55;13.00;93.50
25450;DHT22;13371;52.080;5.624;2023-04-15T09:35:23;13.30;92.40
25450;DHT22;13371;52.080;5.624;2023-04-15T09:37:49;13.50;91.80
25450;DHT22;13371;52.080;5.624;2023-04-15T09:40:34;13.40;93.00
25450;DHT22;13371;52.080;5.624;2023-04-15T09:43:01;13.40;93.40
25450;DHT22;13371;52.080;5.624;2023-04-15T09:45:27;13.50;91.90
25450;DHT22;13371;52.080;5.624;2023-04-15T09:47:52;13.10;92.20
25450;DHT22;13371;52.080;5.624;2023-04-15T09:50:19;12.90;92.60
25450;DHT22;13371;52.080;5.624;2023-04-15T09:52:45;13.10;93.00
25450;DHT22;13371;52.080;5.624;2023-04-15T09:55:12;13.40;93.50
25450;DHT22;13371;52.080;5.624;2023-04-15T09:57:38;13.60;91.90
25450;DHT22;13371;52.080;5.624;2023-04-15T10:00:07;13.80;92.40
25450;DHT22;13371;52.080;5.624;2023-04-15T10:02:34;13.40;91.50
25450;DHT22;13371;52.080;5.624;2023-04-15T10:05:01;13.40;91.90
25450;DHT22;13371;52.080;5.624;2023-04-15T10:07:26;13.30;92.00
25450;DHT22;13371;52.080;5.624;2023-04-15T10:10:13;13.70;91.80
25450;DHT22;13371;52.080;5.624;2023-04-15T10:12:50;13.70;91.40
25450;DHT22;13371;52.080;5.624;2023-04-15T10:15:20;13.90;91.60
25450;DHT22;13371;52.080;5.624;2023-04-15T10:17:49;14.30;90.80
25450;DHT22;13371;52.080;5.624;2023-04-15T10:20:21;14.50;90.80
25450;DHT22;13371;52.080;5.624;2023-04-15T10:22:47;14.70;91.40
25450;DHT22;13371;52.080;5.624;2023-04-15T10:25:14;14.50;90.80
25450;DHT22;13371;52.080;5.624;2023-04-15T10:27:40;14.30;90.60
25450;DHT22;13371;52.080;5.624;2023-04-15T10:30:08;14.30;90.90
25450;DHT22;13371;52.080;5.624;2023-04-15T10:32:38;14.00;90.70
25450;DHT22;13371;52.080;5.624;2023-04-15T10:35:05;13.90;91.60
25450;DHT22;13371;52.080;5.624;2023-04-15T10:37:36;13.80;90.90
25450;DHT22;13371;52.080;5.624;2023-04-15T10:40:31;13.80;91.90
25450;DHT22;13371;52.080;5.624;2023-04-15T10:42:58;14.00;91.20
25450;DHT22;13371;52.080;5.624;2023-04-15T10:45:35;14.20;91.20
25450;DHT22;13371;52.080;5.624;2023-04-15T10:48:03;14.30;91.40
25450;DHT22;13371;52.080;5.624;2023-04-15T10:50:39;14.90;90.70
25450;DHT22;13371;52.080;5.624;2023-04-15T10:53:09;15.00;90.30
25450;DHT22;13371;52.080;5.624;2023-04-15T10:55:38;14.50;89.30
25450;DHT22;13371;52.080;5.624;2023-04-15T10:58:03;14.40;90.50
25450;DHT22;13371;52.080;5.624;2023-04-15T11:00:31;14.60;90.30
25450;DHT22;13371;52.080;5.624;2023-04-15T11:03:06;14.70;91.20
25450;DHT22;13371;52.080;5.624;2023-04-15T11:08:04;15.50;90.30
25450;DHT22;13371;52.080;5.624;2023-04-15T11:15:40;15.10;88.90
25450;DHT22;13371;52.080;5.624;2023-04-15T11:18:26;15.00;88.30
25450;DHT22;13371;52.080;5.624;2023-04-15T11:20:54;15.00;89.10
25450;DHT22;13371;52.080;5.624;2023-04-15T11:23:29;15.70;87.80
25450;DHT22;13371;52.080;5.624;2023-04-15T11:25:55;15.80;86.30
25450;DHT22;13371;52.080;5.624;2023-04-15T11:28:27;16.20;87.30
25450;DHT22;13371;52.080;5.624;2023-04-15T11:30:53;16.10;84.30
25450;DHT22;13371;52.080;5.624;2023-04-15T11:33:20;16.00;84.30
25450;DHT22;13371;52.080;5.624;2023-04-15T11:35:47;15.90;84.20
25450;DHT22;13371;52.080;5.624;2023-04-15T11:38:13;15.90;85.40
25450;DHT22;13371;52.080;5.624;2023-04-15T11:40:40;15.90;83.10
25450;DHT22;13371;52.080;5.624;2023-04-15T11:43:10;15.30;84.50
25450;DHT22;13371;52.080;5.624;2023-04-15T11:45:58;16.00;89.40
25450;DHT22;13371;52.080;5.624;2023-04-15T11:48:35;16.40;84.30
25450;DHT22;13371;52.080;5.624;2023-04-15T11:51:05;15.90;84.30
25450;DHT22;13371;52.080;5.624;2023-04-15T11:53:57;15.90;84.30
25450;DHT22;13371;52.080;5.624;2023-04-15T11:56:24;15.40;84.60
25450;DHT22;13371;52.080;5.624;2023-04-15T11:58:55;14.90;85.70
25450;DHT22;13371;52.080;5.624;2023-04-15T12:01:30;15.00;89.70
25450;DHT22;13371;52.080;5.624;2023-04-15T12:03:56;15.40;86.20
25450;DHT22;13371;52.080;5.624;2023-04-15T12:06:24;15.40;84.80
25450;DHT22;13371;52.080;5.624;2023-04-15T12:09:08;16.00;88.60
25450;DHT22;13371;52.080;5.624;2023-04-15T12:11:48;16.50;87.60
25450;DHT22;13371;52.080;5.624;2023-04-15T12:16:42;15.90;85.70
25450;DHT22;13371;52.080;5.624;2023-04-15T12:19:13;16.10;86.10
25450;DHT22;13371;52.080;5.624;2023-04-15T12:21:41;16.10;86.80
25450;DHT22;13371;52.080;5.624;2023-04-15T12:24:09;16.20;84.40
25450;DHT22;13371;52.080;5.624;2023-04-15T12:26:51;16.00;86.40
25450;DHT22;13371;52.080;5.624;2023-04-15T12:29:18;15.40;85.60
25450;DHT22;13371;52.080;5.624;2023-04-15T12:32:16;14.90;85.10
25450;DHT22;13371;52.080;5.624;2023-04-15T12:34:48;15.10;86.60
25450;DHT22;13371;52.080;5.624;2023-04-15T12:37:14;15.30;88.00
25450;DHT22;13371;52.080;5.624;2023-04-15T12:39:42;15.60;87.60
25450;DHT22;13371;52.080;5.624;2023-04-15T12:42:10;15.90;83.90
25450;DHT22;13371;52.080;5.624;2023-04-15T12:44:36;15.20;84.20
25450;DHT22;13371;52.080;5.624;2023-04-15T12:47:02;14.60;87.00
25450;DHT22;13371;52.080;5.624;2023-04-15T12:49:29;14.90;89.40
25450;DHT22;13371;52.080;5.624;2023-04-15T12:51:56;15.30;89.10
25450;DHT22;13371;52.080;5.624;2023-04-15T12:54:21;15.60;89.00
25450;DHT22;13371;52.080;5.624;2023-04-15T12:56:49;15.30;86.40
25450;DHT22;13371;52.080;5.624;2023-04-15T12:59:15;15.10;86.50
25450;DHT22;13371;52.080;5.624;2023-04-15T13:01:43;14.90;87.30
25450;DHT22;13371;52.080;5.624;2023-04-15T13:04:08;14.60;87.30
25450;DHT22;13371;52.080;5.624;2023-04-15T13:06:34;14.90;90.00
25450;DHT22;13371;52.080;5.624;2023-04-15T13:09:00;15.30;90.30
25450;DHT22;13371;52.080;5.624;2023-04-15T13:11:26;15.50;89.20
25450;DHT22;13371;52.080;5.624;2023-04-15T13:13:53;15.70;87.80
25450;DHT22;13371;52.080;5.624;2023-04-15T13:16:19;15.40;87.50
25450;DHT22;13371;52.080;5.624;2023-04-15T13:18:47;15.20;88.90
25450;DHT22;13371;52.080;5.624;2023-04-15T13:21:12;15.00;89.00
25450;DHT22;13371;52.080;5.624;2023-04-15T13:23:38;14.90;89.40
25450;DHT22;13371;52.080;5.624;2023-04-15T13:26:03;14.60;90.50
25450;DHT22;13371;52.080;5.624;2023-04-15T13:28:29;14.70;91.60
25450;DHT22;13371;52.080;5.624;2023-04-15T13:30:55;14.50;90.70
25450;DHT22;13371;52.080;5.624;2023-04-15T13:33:21;14.40;90.30
25450;DHT22;13371;52.080;5.624;2023-04-15T13:35:46;14.70;91.10
25450;DHT22;13371;52.080;5.624;2023-04-15T13:38:12;14.60;89.10
25450;DHT22;13371;52.080;5.624;2023-04-15T13:40:43;14.40;89.70
25450;DHT22;13371;52.080;5.624;2023-04-15T13:43:14;14.30;90.20
25450;DHT22;13371;52.080;5.624;2023-04-15T13:45:40;14.50;91.00
25450;DHT22;13371;52.080;5.624;2023-04-15T13:48:11;14.40;89.70
25450;DHT22;13371;52.080;5.624;2023-04-15T13:50:40;14.50;90.30
25450;DHT22;13371;52.080;5.624;2023-04-15T13:53:10;14.10;90.90
25450;DHT22;13371;52.080;5.624;2023-04-15T13:55:38;14.20;91.30
25450;DHT22;13371;52.080;5.624;2023-04-15T13:58:06;14.30;91.40
25450;DHT22;13371;52.080;5.624;2023-04-15T14:00:32;14.50;91.80
25450;DHT22;13371;52.080;5.624;2023-04-15T14:02:58;14.30;91.40
25450;DHT22;13371;52.080;5.624;2023-04-15T14:05:23;14.30;92.10
25450;DHT22;13371;52.080;5.624;2023-04-15T14:07:49;13.90;91.90
25450;DHT22;13371;52.080;5.624;2023-04-15T14:10:14;13.90;92.30
25450;DHT22;13371;52.080;5.624;2023-04-15T14:12:40;13.80;91.80
25450;DHT22;13371;52.080;5.624;2023-04-15T14:15:06;13.90;91.90
25450;DHT22;13371;52.080;5.624;2023-04-15T14:17:32;13.50;91.90
25450;DHT22;13371;52.080;5.624;2023-04-15T14:20:00;13.50;92.40
25450;DHT22;13371;52.080;5.624;2023-04-15T14:22:29;13.50;93.20
25450;DHT22;13371;52.080;5.624;2023-04-15T14:25:19;13.60;92.80
25450;DHT22;13371;52.080;5.624;2023-04-15T14:28:06;13.60;92.50
25450;DHT22;13371;52.080;5.624;2023-04-15T14:30:32;13.60;92.70
25450;DHT22;13371;52.080;5.624;2023-04-15T14:32:57;13.80;92.70
25450;DHT22;13371;52.080;5.624;2023-04-15T14:35:23;13.70;92.30
25450;DHT22;13371;52.080;5.624;2023-04-15T14:37:54;13.50;92.60
25450;DHT22;13371;52.080;5.624;2023-04-15T14:43:31;13.20;93.20
25450;DHT22;13371;52.080;5.624;2023-04-15T14:45:57;13.10;92.60
25450;DHT22;13371;52.080;5.624;2023-04-15T14:48:23;13.30;93.20
25450;DHT22;13371;52.080;5.624;2023-04-15T14:50:49;13.30;93.40
25450;DHT22;13371;52.080;5.624;2023-04-15T14:53:14;13.20;93.70
25450;DHT22;13371;52.080;5.624;2023-04-15T14:55:40;13.40;93.70
25450;DHT22;13371;52.080;5.624;2023-04-15T14:58:06;13.10;93.40
25450;DHT22;13371;52.080;5.624;2023-04-15T15:00:37;13.00;94.30
25450;DHT22;13371;52.080;5.624;2023-04-15T15:03:04;12.90;94.00
25450;DHT22;13371;52.080;5.624;2023-04-15T15:05:37;12.70;94.60
25450;DHT22;13371;52.080;5.624;2023-04-15T15:08:03;12.60;94.90
25450;DHT22;13371;52.080;5.624;2023-04-15T15:10:28;12.70;95.20
25450;DHT22;13371;52.080;5.624;2023-04-15T15:12:54;12.70;94.80
25450;DHT22;13371;52.080;5.624;2023-04-15T15:15:19;12.70;94.90
25450;DHT22;13371;52.080;5.624;2023-04-15T15:17:45;12.60;94.80
25450;DHT22;13371;52.080;5.624;2023-04-15T15:20:11;12.60;95.10
25450;DHT22;13371;52.080;5.624;2023-04-15T15:22:36;12.80;94.80
25450;DHT22;13371;52.080;5.624;2023-04-15T15:25:02;12.80;94.60
25450;DHT22;13371;52.080;5.624;2023-04-15T15:27:28;12.80;94.20
25450;DHT22;13371;52.080;5.624;2023-04-15T15:29:57;12.60;94.40
25450;DHT22;13371;52.080;5.624;2023-04-15T15:32:23;12.50;95.00
25450;DHT22;13371;52.080;5.624;2023-04-15T15:34:49;12.40;94.90
25450;DHT22;13371;52.080;5.624;2023-04-15T15:37:14;12.60;95.60
25450;DHT22;13371;52.080;5.624;2023-04-15T15:39:40;12.50;95.00
25450;DHT22;13371;52.080;5.624;2023-04-15T15:42:06;12.50;94.80
25450;DHT22;13371;52.080;5.624;2023-04-15T15:44:32;12.30;95.00
25450;DHT22;13371;52.080;5.624;2023-04-15T15:46:58;12.10;95.20
25450;DHT22;13371;52.080;5.624;2023-04-15T15:49:24;12.00;95.90
25450;DHT22;13371;52.080;5.624;2023-04-15T15:51:50;12.30;95.60
25450;DHT22;13371;52.080;5.624;2023-04-15T15:54:16;12.60;95.50